Time;durP1;ratioP1;P1;durP2;ratioP2;P2;SDS_P1;SDS_P2;PMS_P1;PMS_P2;Temp;Humidity;BMP_temperature;BMP_pressure;BME280_temperature;BME280_humidity;BME280_pressure;Samples;Min_cycle;Max_cycle;Signal;HPM_P1;HPM_P2
2023/08/24 00:02:04;;;;;;;11.00;8.30;;;;;;;-143.84;59.44;45014.78;5109329;28;20442;-60
2023/08/24 00:04:32;;;;;;;9.30;7.70;;;;;;;-143.84;59.73;45018.59;5109463;27;20494;-60
2023/08/24 00:06:59;;;;;;;9.33;8.00;;;;;;;-143.84;59.90;45016.69;5109450;28;20430;-60
2023/08/24 00:09:26;;;;;;;8.60;7.87;;;;;;;-143.84;59.98;45020.50;5109381;28;20446;-59
2023/08/24 00:11:54;;;;;;;8.67;8.03;;;;;;;-143.84;59.96;44991.94;5109383;28;20446;-59
2023/08/24 00:14:21;;;;;;;9.00;8.20;;;;;;;-143.84;60.23;45026.22;5109156;28;20466;-59
2023/08/24 00:16:49;;;;;;;9.00;8.20;;;;;;;-143.84;60.24;44999.56;5109019;28;20979;-60
2023/08/24 00:19:16;;;;;;;10.50;7.57;;;;;;;-143.84;59.89;45001.47;5109213;28;20439;-60
2023/08/24 00:21:44;;;;;;;8.77;7.57;;;;;;;-143.84;59.47;45007.19;5108817;28;20430;-59
2023/08/24 00:24:11;;;;;;;10.40;7.90;;;;;;;-143.84;59.47;45001.47;5109202;28;20484;-60
2023/08/24 00:26:38;;;;;;;15.73;8.17;;;;;;;-143.84;59.04;44982.41;5108982;28;20476;-60
2023/08/24 00:29:05;;;;;;;7.63;7.03;;;;;;;-143.84;58.87;45009.09;5108890;28;20536;-59
2023/08/24 00:31:32;;;;;;;8.13;7.40;;;;;;;-143.84;58.74;44988.13;5108299;28;20488;-60
2023/08/24 00:34:01;;;;;;;8.40;7.70;;;;;;;-143.84;58.84;44993.84;5108537;28;20438;-60
2023/08/24 00:36:28;;;;;;;9.23;8.20;;;;;;;-143.84;58.73;45024.31;5108263;28;20442;-60
2023/08/24 00:38:55;;;;;;;8.80;8.00;;;;;;;-143.84;58.99;44990.03;5108984;28;21125;-59
2023/08/24 00:41:24;;;;;;;8.10;7.33;;;;;;;-143.84;58.40;45020.50;5108145;28;20431;-60
2023/08/24 00:43:52;;;;;;;7.87;7.17;;;;;;;-143.84;58.03;45007.19;5107985;28;20434;-60
2023/08/24 00:46:19;;;;;;;8.60;7.80;;;;;;;-143.84;58.23;45012.88;5108812;28;20437;-59
2023/08/24 00:48:47;;;;;;;8.73;7.77;;;;;;;-143.84;58.87;45022.41;5108673;28;20478;-59
2023/08/24 00:51:16;;;;;;;8.23;7.50;;;;;;;-143.84;59.20;45007.19;5109004;28;20443;-60
2023/08/24 00:53:43;;;;;;;7.67;6.97;;;;;;;-143.84;59.35;45010.97;5108915;28;20447;-59
2023/08/24 00:56:10;;;;;;;8.00;7.20;;;;;;;-143.84;58.98;45007.19;5108657;28;20447;-60
2023/08/24 00:58:39;;;;;;;8.47;7.70;;;;;;;-143.84;59.46;45010.97;5108456;28;20431;-60
2023/08/24 01:01:06;;;;;;;11.63;7.53;;;;;;;-143.84;59.17;45007.19;5108739;28;20500;-59
2023/08/24 01:03:34;;;;;;;10.77;7.83;;;;;;;-143.84;59.19;45007.19;5108883;28;20438;-60
2023/08/24 01:06:01;;;;;;;13.97;8.47;;;;;;;-143.84;59.33;45012.88;5108963;28;20963;-60
2023/08/24 01:08:29;;;;;;;9.27;8.00;;;;;;;-143.84;59.22;45009.09;5108882;28;20976;-60
2023/08/24 01:11:03;;;;;;;10.03;7.80;;;;;;;-143.84;59.41;44988.13;5108794;28;20481;-60
2023/08/24 01:13:38;;;;;;;8.50;7.40;;;;;;;-143.84;59.30;44997.66;5108433;28;20443;-60
2023/08/24 01:16:10;;;;;;;8.60;7.90;;;;;;;-143.84;59.78;45020.50;5108861;28;20796;-60
2023/08/24 01:18:37;;;;;;;8.40;7.67;;;;;;;-143.84;59.72;45010.97;5108840;28;20434;-60
2023/08/24 01:21:06;;;;;;;8.80;8.03;;;;;;;-143.84;59.30;45016.69;5108582;28;20439;-59
2023/08/24 01:23:46;;;;;;;8.37;7.57;;;;;;;-143.84;59.33;45020.50;5108431;28;20447;-60
2023/08/24 01:26:18;;;;;;;8.90;8.00;;;;;;;-143.84;59.58;45009.09;5108867;28;20491;-60
2023/08/24 01:28:46;;;;;;;10.03;8.47;;;;;;;-143.84;59.19;45016.69;5108647;28;20485;-59
2023/08/24 01:31:16;;;;;;;8.07;7.27;;;;;;;-143.84;59.24;45012.88;5108577;28;20491;-60
2023/08/24 01:33:43;;;;;;;7.50;7.00;;;;;;;-143.84;59.44;45016.69;5108447;28;20476;-60
2023/08/24 01:36:11;;;;;;;9.57;8.60;;;;;;;-143.84;60.01;45018.59;5112081;28;20464;-59
2023/08/24 01:38:38;;;;;;;9.13;8.07;;;;;;;-143.84;60.62;45037.66;5112313;28;20447;-60
2023/08/24 01:41:13;;;;;;;9.30;8.53;;;;;;;-143.84;61.95;45005.28;5112068;28;21000;-60
2023/08/24 01:43:46;;;;;;;13.80;9.37;;;;;;;-143.84;67.82;44988.13;5112469;27;20507;-60
2023/08/24 01:46:15;;;;;;;9.40;8.50;;;;;;;-143.84;66.70;45022.41;5112217;28;20863;-60
2023/08/24 01:48:44;;;;;;;11.47;9.63;;;;;;;-143.84;66.41;45022.41;5111753;28;21022;-60
2023/08/24 01:51:11;;;;;;;9.30;8.50;;;;;;;-143.84;65.70;45016.69;5111855;28;20818;-60
2023/08/24 01:53:40;;;;;;;12.90;9.23;;;;;;;-143.84;64.85;45007.19;5111928;28;20432;-60
2023/08/24 01:56:11;;;;;;;8.60;8.00;;;;;;;-143.84;64.56;45020.50;5111848;28;20443;-60
2023/08/24 01:58:38;;;;;;;18.27;9.50;;;;;;;-143.84;64.68;45028.13;5111758;28;20530;-60
2023/08/24 02:01:09;;;;;;;11.10;10.00;;;;;;;-143.84;65.81;45026.22;5111875;28;21221;-59
2023/08/24 02:03:36;;;;;;;11.30;10.20;;;;;;;-143.84;67.01;45016.69;5111733;27;20435;-60
2023/08/24 02:06:04;;;;;;;11.93;10.70;;;;;;;-143.84;68.18;44990.03;5111869;28;20447;-60
2023/08/24 02:08:30;;;;;;;10.00;9.20;;;;;;;-143.84;69.12;45028.13;5111569;28;20483;-59
2023/08/24 02:10:57;;;;;;;10.20;9.37;;;;;;;-143.84;68.78;45012.88;5111561;28;20611;-60
2023/08/24 02:13:25;;;;;;;13.00;9.20;;;;;;;-143.84;68.86;44993.84;5111919;28;20474;-60
2023/08/24 02:15:52;;;;;;;12.37;9.43;;;;;;;-143.84;68.76;45016.69;5111633;28;21319;-60
2023/08/24 02:18:20;;;;;;;10.50;9.50;;;;;;;-143.84;68.99;45003.38;5111799;28;20435;-60
2023/08/24 02:20:47;;;;;;;12.90;10.73;;;;;;;-143.84;69.75;45030.03;5111349;28;20447;-60
2023/08/24 02:23:14;;;;;;;16.13;10.40;;;;;;;-143.84;71.40;45005.28;5111011;28;20457;-60
2023/08/24 02:25:43;;;;;;;11.37;10.10;;;;;;;-143.84;72.02;45039.53;5110900;27;20483;-60
2023/08/24 02:28:11;;;;;;;12.73;11.53;;;;;;;-143.84;73.52;45009.09;5110845;28;21139;-60
2023/08/24 02:30:38;;;;;;;13.93;11.20;;;;;;;-143.84;74.38;45028.13;5111149;28;20431;-59
2023/08/24 02:33:06;;;;;;;17.73;11.90;;;;;;;-143.84;75.10;45026.22;5111441;28;20843;-60
2023/08/24 02:35:34;;;;;;;13.83;12.23;;;;;;;-143.84;75.55;45010.97;5111424;28;20794;-60
2023/08/24 02:38:01;;;;;;;12.87;11.60;;;;;;;-143.84;76.01;45045.25;5111197;28;20799;-59
2023/08/24 02:40:29;;;;;;;13.03;11.43;;;;;;;-143.84;76.59;45020.50;5110770;28;20445;-60
2023/08/24 02:42:56;;;;;;;14.03;11.90;;;;;;;-143.84;77.14;45024.31;5111146;28;20485;-59
2023/08/24 02:45:23;;;;;;;12.57;11.50;;;;;;;-143.84;77.19;45016.69;5110420;28;20500;-60
2023/08/24 02:47:50;;;;;;;15.03;13.63;;;;;;;-143.84;77.61;45018.59;5110887;28;20450;-60
2023/08/24 02:50:17;;;;;;;14.47;12.23;;;;;;;-143.84;78.24;45031.94;5110743;28;20468;-60
2023/08/24 02:52:45;;;;;;;13.83;12.50;;;;;;;-143.84;78.42;45016.69;5110264;28;20431;-60
2023/08/24 02:55:13;;;;;;;13.37;11.90;;;;;;;-143.84;78.57;45028.13;5110422;28;20492;-60
2023/08/24 02:57:40;;;;;;;13.73;11.20;;;;;;;-143.84;78.46;45001.47;5110602;28;20812;-60
2023/08/24 03:00:09;;;;;;;15.13;12.60;;;;;;;-143.84;78.57;45026.22;5110709;28;20438;-60
2023/08/24 03:02:37;;;;;;;14.40;13.00;;;;;;;-143.84;79.07;45020.50;5110810;28;20435;-60
2023/08/24 03:05:05;;;;;;;14.57;13.20;;;;;;;-143.84;79.88;45028.13;5110801;28;20527;-60
2023/08/24 03:07:32;;;;;;;15.37;13.83;;;;;;;-143.84;80.96;45020.50;5110539;28;20547;-60
2023/08/24 03:10:00;;;;;;;16.87;13.80;;;;;;;-143.84;81.46;45049.06;5110268;28;20532;-60
2023/08/24 03:12:27;;;;;;;14.90;13.50;;;;;;;-143.84;81.98;45043.34;5110658;28;20516;-60
2023/08/24 03:14:55;;;;;;;14.93;13.37;;;;;;;-143.84;82.15;45037.66;5110418;28;20435;-60
2023/08/24 03:17:22;;;;;;;14.80;13.43;;;;;;;-143.84;82.01;45009.09;5110476;27;20462;-60
2023/08/24 03:19:49;;;;;;;18.37;13.53;;;;;;;-143.84;82.16;45028.13;5110100;28;20439;-60
2023/08/24 03:22:17;;;;;;;16.37;14.77;;;;;;;-143.84;82.96;45049.06;5110170;27;20488;-60
2023/08/24 03:24:44;;;;;;;19.57;15.70;;;;;;;-143.84;83.92;45018.59;5109903;28;20518;-60
2023/08/24 03:27:13;;;;;;;17.07;15.37;;;;;;;-143.84;83.98;45031.94;5109868;28;20435;-60
2023/08/24 03:29:40;;;;;;;18.13;16.40;;;;;;;-143.84;84.67;45030.03;5109838;28;20479;-60
2023/08/24 03:32:07;;;;;;;19.23;17.30;;;;;;;-143.84;85.77;45024.31;5109957;28;20439;-60
2023/08/24 03:34:34;;;;;;;19.20;17.50;;;;;;;-143.84;87.07;45037.66;5110039;28;20431;-60
2023/08/24 03:37:02;;;;;;;20.30;18.40;;;;;;;-143.84;87.82;45047.16;5109646;28;20431;-60
2023/08/24 03:39:29;;;;;;;20.97;18.87;;;;;;;-143.84;88.53;45054.78;5109984;28;20471;-60
2023/08/24 03:41:56;;;;;;;20.43;18.60;;;;;;;-143.84;89.16;45033.84;5109671;28;20434;-60
2023/08/24 03:44:24;;;;;;;20.20;17.23;;;;;;;-143.84;89.75;45022.41;5108510;27;21499;-60
2023/08/24 03:46:51;;;;;;;19.37;17.33;;;;;;;-143.84;89.95;45028.13;5125401;27;20450;-60
2023/08/24 03:49:18;;;;;;;19.10;17.03;;;;;;;-143.84;89.98;45039.53;5130153;27;21376;-59
2023/08/24 03:51:46;;;;;;;17.90;16.40;;;;;;;-143.84;90.29;45018.59;5130473;27;21298;-59
2023/08/24 03:54:13;;;;;;;18.53;16.70;;;;;;;-143.84;90.31;45010.97;5130103;27;20441;-59
2023/08/24 03:56:40;;;;;;;20.27;16.50;;;;;;;-143.84;90.40;45028.13;5130067;27;20902;-60
2023/08/24 03:59:07;;;;;;;19.47;17.57;;;;;;;-143.84;90.35;45031.94;5130617;27;21076;-60
2023/08/24 04:01:36;;;;;;;19.83;16.97;;;;;;;-143.84;89.60;45052.88;5130327;27;20494;-60
2023/08/24 04:04:03;;;;;;;17.60;15.80;;;;;;;-143.84;89.67;45020.50;5129400;27;20494;-59
2023/08/24 04:06:30;;;;;;;22.03;17.07;;;;;;;-143.84;89.81;45041.44;5130086;27;20868;-59
2023/08/24 04:08:57;;;;;;;17.83;16.13;;;;;;;-143.84;89.23;45031.94;5129668;27;21118;-60
2023/08/24 04:11:24;;;;;;;17.77;16.07;;;;;;;-143.84;88.51;45024.31;5129544;27;20446;-60
2023/08/24 04:13:52;;;;;;;16.77;15.37;;;;;;;-143.84;87.90;45018.59;5129954;27;20491;-60
2023/08/24 04:16:19;;;;;;;25.27;16.60;;;;;;;-143.84;87.49;45018.59;5129286;27;20538;-60
2023/08/24 04:18:48;;;;;;;17.87;16.07;;;;;;;-143.84;86.65;45014.78;5129521;27;20487;-59
2023/08/24 04:21:15;;;;;;;16.23;13.80;;;;;;;-143.84;86.21;45003.38;5129906;27;20490;-60
2023/08/24 04:23:44;;;;;;;16.30;12.97;;;;;;;-143.84;85.76;45003.38;5129633;27;20485;-60
2023/08/24 04:26:12;;;;;;;19.67;13.47;;;;;;;-143.84;84.69;45014.78;5129963;27;20438;-60
2023/08/24 04:28:40;;;;;;;20.60;13.83;;;;;;;-143.84;84.58;45012.88;5129571;27;20469;-60
2023/08/24 04:31:07;;;;;;;15.40;14.00;;;;;;;-143.84;84.30;45010.97;5129517;27;20454;-59
2023/08/24 04:33:34;;;;;;;16.40;12.83;;;;;;;-143.84;83.69;45009.09;5129146;27;20491;-60
2023/08/24 04:36:04;;;;;;;14.80;12.97;;;;;;;-143.84;83.35;45037.66;5129282;27;20450;-60
2023/08/24 04:38:31;;;;;;;12.40;11.20;;;;;;;-143.84;82.80;45020.50;5129254;27;20527;-60
2023/08/24 04:40:58;;;;;;;12.43;10.47;;;;;;;-143.84;81.78;45003.38;5128725;27;20829;-60
2023/08/24 04:43:26;;;;;;;20.33;10.90;;;;;;;-143.84;81.19;45018.59;5129263;27;20465;-60
2023/08/24 04:45:54;;;;;;;11.63;10.43;;;;;;;-143.84;79.16;44993.84;5129215;27;20446;-60
2023/08/24 04:48:23;;;;;;;10.63;9.50;;;;;;;-143.84;76.85;44991.94;5129330;27;20438;-60
2023/08/24 04:50:50;;;;;;;9.80;8.90;;;;;;;-143.84;71.11;44974.81;5129311;27;20434;-60
2023/08/24 04:53:19;;;;;;;9.40;8.57;;;;;;;-143.84;68.38;44991.94;5129525;27;20430;-60
2023/08/24 04:55:47;;;;;;;14.77;7.77;;;;;;;-143.84;62.54;44969.09;5129234;27;20438;-60
2023/08/24 04:58:15;;;;;;;7.77;6.97;;;;;;;-143.84;57.76;44950.06;5129304;27;20434;-59
2023/08/24 05:00:42;;;;;;;8.47;7.80;;;;;;;-143.84;58.08;44953.88;5129668;27;20434;-60
2023/08/24 05:03:09;;;;;;;9.90;7.73;;;;;;;-143.84;55.26;44967.19;5129842;27;21231;-61
2023/08/24 05:05:37;;;;;;;12.83;7.70;;;;;;;-143.84;55.21;44974.81;5129503;27;20441;-60
2023/08/24 05:08:06;;;;;;;10.53;7.37;;;;;;;-143.84;54.41;44950.06;5129674;27;20982;-61
2023/08/24 05:10:35;;;;;;;9.57;7.30;;;;;;;-143.84;54.70;44929.09;5132402;27;20477;-61
2023/08/24 05:13:02;;;;;;;11.30;7.03;;;;;;;-143.84;53.81;44919.59;5132156;27;20434;-61
2023/08/24 05:15:30;;;;;;;8.87;7.13;;;;;;;-143.84;53.42;44938.63;5132443;27;20437;-60
2023/08/24 05:17:59;;;;;;;7.30;6.70;;;;;;;-143.84;51.10;44923.41;5132200;27;20961;-61
2023/08/24 05:20:26;;;;;;;8.87;6.97;;;;;;;-143.84;48.59;44881.50;5132199;27;20483;-61
2023/08/24 05:22:54;;;;;;;7.80;7.03;;;;;;;-143.84;46.58;44921.50;5132456;27;20495;-60
2023/08/24 05:25:22;;;;;;;7.47;6.77;;;;;;;-143.84;46.83;44881.50;5132431;27;20485;-61
2023/08/24 05:27:51;;;;;;;9.43;6.23;;;;;;;-143.84;46.29;44904.34;5132651;27;20446;-61
2023/08/24 05:30:18;;;;;;;17.93;6.83;;;;;;;-143.84;46.65;44879.59;5132852;27;20474;-61
2023/08/24 05:32:46;;;;;;;13.70;6.97;;;;;;;-143.84;46.99;44913.88;5132664;27;20438;-61
2023/08/24 05:35:13;;;;;;;10.40;7.00;;;;;;;-143.84;47.23;44885.31;5132630;27;20434;-61
2023/08/24 05:37:40;;;;;;;15.73;6.90;;;;;;;-143.84;46.57;44877.69;5132900;27;20438;-61
2023/08/24 05:40:08;;;;;;;13.50;6.93;;;;;;;-143.84;44.81;44870.09;5132693;27;20434;-61
2023/08/24 05:42:36;;;;;;;8.63;7.83;;;;;;;-143.84;45.56;44885.31;5132563;27;20434;-61
2023/08/24 05:45:05;;;;;;;11.37;7.17;;;;;;;-143.84;45.27;44902.44;5132370;27;20524;-60
2023/08/24 05:47:33;;;;;;;6.57;6.10;;;;;;;-143.84;45.76;44875.78;5132649;27;20435;-61
2023/08/24 05:50:00;;;;;;;7.77;7.07;;;;;;;-143.84;44.58;44868.19;5132271;27;20530;-60
2023/08/24 05:52:27;;;;;;;7.97;7.27;;;;;;;-143.84;39.77;44858.66;5132644;27;20434;-61
2023/08/24 05:54:54;;;;;;;12.67;5.97;;;;;;;-143.84;40.51;44839.63;5132537;27;20467;-61
2023/08/24 05:57:21;;;;;;;6.93;6.07;;;;;;;-143.84;38.78;44818.66;5132295;27;20434;-61
2023/08/24 05:59:48;;;;;;;7.03;6.27;;;;;;;-143.84;38.79;44835.81;5132426;27;20510;-60
2023/08/24 06:02:17;;;;;;;6.53;5.80;;;;;;;-143.84;38.81;44881.50;5132350;27;20430;-61
2023/08/24 06:04:44;;;;;;;9.97;7.20;;;;;;;-143.84;41.68;44860.56;5132143;27;20434;-60
2023/08/24 06:07:11;;;;;;;13.40;8.20;;;;;;;-143.84;43.20;44858.66;5132284;27;20813;-61
2023/08/24 06:09:38;;;;;;;7.73;6.77;;;;;;;-143.84;42.05;44847.22;5132015;27;20470;-61
2023/08/24 06:12:06;;;;;;;8.07;7.07;;;;;;;-143.84;42.43;44851.03;5132353;27;20430;-60
2023/08/24 06:14:34;;;;;;;11.00;7.33;;;;;;;-143.84;43.63;44881.50;5132368;27;20434;-60
2023/08/24 06:17:01;;;;;;;11.73;7.80;;;;;;;-143.84;44.05;44873.88;5132122;27;20438;-60
2023/08/24 06:19:29;;;;;;;8.13;7.33;;;;;;;-143.84;45.50;44881.50;5131788;27;20434;-60
2023/08/24 06:21:56;;;;;;;9.50;7.97;;;;;;;-143.84;45.29;44864.38;5131424;27;20438;-60
2023/08/24 06:24:24;;;;;;;12.03;7.70;;;;;;;-143.84;44.51;44875.78;5131728;27;20490;-61
2023/08/24 06:26:51;;;;;;;15.40;7.60;;;;;;;-143.84;44.87;44858.66;5131929;27;20445;-60
2023/08/24 06:29:18;;;;;;;12.17;7.00;;;;;;;-143.84;45.35;44843.44;5131287;27;20850;-60
2023/08/24 06:31:45;;;;;;;11.23;7.67;;;;;;;-143.84;46.70;44868.19;5131530;27;20430;-60
2023/08/24 06:34:12;;;;;;;10.93;7.87;;;;;;;-143.84;48.06;44841.53;5131671;27;20434;-60
2023/08/24 06:36:40;;;;;;;7.77;7.07;;;;;;;-143.84;43.93;44870.09;5131657;27;20963;-60
2023/08/24 06:39:08;;;;;;;10.23;6.73;;;;;;;-143.84;42.56;44866.28;5131811;27;20446;-60
2023/08/24 06:41:35;;;;;;;8.40;7.20;;;;;;;-143.84;46.27;44868.19;5131513;27;20438;-60
2023/08/24 06:44:03;;;;;;;11.00;6.70;;;;;;;-143.84;42.61;44856.75;5131667;27;20472;-60
2023/08/24 06:46:30;;;;;;;7.37;6.10;;;;;;;-143.84;43.31;44896.75;5131480;27;20438;-60
2023/08/24 06:48:57;;;;;;;13.43;7.57;;;;;;;-143.84;44.27;44870.09;5131615;27;20515;-60
2023/08/24 06:51:25;;;;;;;17.63;6.90;;;;;;;-143.84;43.53;44889.13;5131340;27;20442;-60
2023/08/24 06:53:54;;;;;;;6.60;5.87;;;;;;;-143.84;43.41;44864.38;5131118;27;20446;-60
2023/08/24 06:56:21;;;;;;;6.60;6.10;;;;;;;-143.84;44.38;44847.22;5130706;27;20938;-60
2023/08/24 06:58:49;;;;;;;7.57;6.87;;;;;;;-143.84;45.58;44854.84;5130837;27;20430;-60
2023/08/24 07:01:16;;;;;;;6.93;6.27;;;;;;;-143.84;44.43;44864.38;5130747;27;20457;-60
2023/08/24 07:03:43;;;;;;;7.77;6.70;;;;;;;-143.84;46.55;44852.94;5131084;27;20468;-60
2023/08/24 07:06:11;;;;;;;8.90;6.63;;;;;;;-143.84;47.66;44870.09;5131198;27;20949;-60
2023/08/24 07:08:39;;;;;;;10.63;6.23;;;;;;;-143.84;44.81;44881.50;5130757;27;20453;-60
2023/08/24 07:11:07;;;;;;;10.20;6.73;;;;;;;-143.84;47.48;44877.69;5130655;27;21047;-60
2023/08/24 07:13:35;;;;;;;8.63;7.13;;;;;;;-143.84;48.29;44866.28;5130873;27;20434;-60
2023/08/24 07:16:03;;;;;;;10.53;7.57;;;;;;;-143.84;48.30;44870.09;5130453;27;20438;-60
2023/08/24 07:18:30;;;;;;;8.23;7.40;;;;;;;-143.84;50.02;44852.94;5130749;27;20813;-60
2023/08/24 07:20:58;;;;;;;7.90;7.30;;;;;;;-143.84;51.60;44862.47;5130533;27;20495;-60
2023/08/24 07:23:25;;;;;;;7.90;7.30;;;;;;;-143.84;53.12;44879.59;5130628;27;20856;-60
2023/08/24 07:25:53;;;;;;;11.07;7.23;;;;;;;-143.84;52.81;44849.13;5130594;27;20438;-60
2023/08/24 07:28:21;;;;;;;8.37;7.30;;;;;;;-143.84;53.18;44879.59;5130527;27;20932;-60
2023/08/24 07:30:48;;;;;;;8.10;7.23;;;;;;;-143.84;51.47;44841.53;5130430;27;20550;-60
2023/08/24 07:33:16;;;;;;;7.80;7.10;;;;;;;-143.84;50.65;44871.97;5129276;27;20486;-60
2023/08/24 07:35:43;;;;;;;8.13;7.50;;;;;;;-143.84;50.70;44837.72;5130630;27;21203;-60
2023/08/24 07:38:10;;;;;;;8.43;7.57;;;;;;;-143.84;51.21;44856.75;5130074;27;20441;-60
2023/08/24 07:40:38;;;;;;;8.00;7.40;;;;;;;-143.84;50.87;44877.69;5130234;27;20449;-60
2023/08/24 07:43:05;;;;;;;10.33;7.17;;;;;;;-143.84;50.03;44845.31;5130147;27;20524;-60
2023/08/24 07:45:34;;;;;;;8.43;6.90;;;;;;;-143.84;48.22;44860.56;5130148;27;20438;-60
2023/08/24 07:48:01;;;;;;;9.03;7.80;;;;;;;-143.84;51.02;44851.03;5130464;27;20457;-60
2023/08/24 07:50:28;;;;;;;11.57;7.30;;;;;;;-143.84;50.42;44843.44;5130434;27;20528;-60
2023/08/24 07:52:55;;;;;;;7.97;7.27;;;;;;;-143.84;48.93;44835.81;5130467;27;20952;-60
2023/08/24 07:55:23;;;;;;;10.40;6.93;;;;;;;-143.84;50.17;44866.28;5130266;27;20468;-60
2023/08/24 07:57:50;;;;;;;7.83;7.07;;;;;;;-143.84;48.37;44830.09;5130270;27;20434;-60
2023/08/24 08:00:17;;;;;;;8.10;6.63;;;;;;;-143.84;49.95;44832.00;5130023;27;20520;-60
2023/08/24 08:02:46;;;;;;;8.90;6.80;;;;;;;-143.84;49.75;44845.31;5130117;27;20484;-60
2023/08/24 08:05:13;;;;;;;10.27;7.90;;;;;;;-143.84;51.94;44845.31;5129815;27;20442;-60
2023/08/24 08:07:40;;;;;;;9.90;8.93;;;;;;;-143.84;57.47;44891.03;5129780;27;20442;-60
2023/08/24 08:10:08;;;;;;;9.90;7.93;;;;;;;-143.84;61.22;44847.22;5129750;27;20530;-60
2023/08/24 08:12:35;;;;;;;10.10;8.77;;;;;;;-143.84;62.30;44902.44;5129769;27;20992;-60
2023/08/24 08:15:02;;;;;;;9.57;8.63;;;;;;;-143.84;61.78;44902.44;5129402;27;20430;-60
2023/08/24 08:17:30;;;;;;;20.23;8.63;;;;;;;-143.84;63.05;44894.84;5129664;27;20438;-60
2023/08/24 08:19:58;;;;;;;15.47;9.70;;;;;;;-143.84;66.63;44904.34;5129600;27;20498;-60
2023/08/24 08:22:26;;;;;;;10.40;9.10;;;;;;;-143.84;66.19;44896.75;5129486;27;20446;-60
2023/08/24 08:24:56;;;;;;;9.30;8.53;;;;;;;-143.84;67.96;44940.53;5129466;27;20509;-60
2023/08/24 08:27:23;;;;;;;10.73;9.73;;;;;;;-143.84;69.85;44906.25;5129677;27;20441;-60
2023/08/24 08:29:52;;;;;;;10.80;7.63;;;;;;;-143.84;69.17;44934.81;5129347;27;20473;-60
2023/08/24 08:32:19;;;;;;;9.13;8.20;;;;;;;-143.84;68.29;44908.16;5129609;27;20441;-60
2023/08/24 08:34:46;;;;;;;7.73;7.13;;;;;;;-143.84;65.52;44931.00;5129577;27;20442;-60
2023/08/24 08:37:15;;;;;;;7.90;7.17;;;;;;;-143.84;65.76;44883.41;5129472;27;20434;-60
2023/08/24 08:39:42;;;;;;;12.60;7.43;;;;;;;-143.84;66.84;44891.03;5129264;27;20434;-60
2023/08/24 08:42:13;;;;;;;8.40;7.60;;;;;;;-143.84;65.97;44892.94;5129976;27;20445;-60
2023/08/24 08:44:43;;;;;;;9.13;8.30;;;;;;;-143.84;65.97;44932.91;5132834;27;20482;-60
2023/08/24 08:47:12;;;;;;;9.20;7.73;;;;;;;-143.84;70.06;44919.59;5133889;27;21179;-60
2023/08/24 08:49:40;;;;;;;11.43;7.27;;;;;;;-143.84;68.39;44913.88;5133566;27;20430;-60
2023/08/24 08:52:08;;;;;;;17.00;6.60;;;;;;;-143.84;68.12;44932.91;5133506;27;20975;-60
2023/08/24 08:54:36;;;;;;;14.03;7.13;;;;;;;-143.84;69.23;44923.41;5133982;27;20781;-60
2023/08/24 08:57:04;;;;;;;10.73;6.60;;;;;;;-143.84;68.60;44919.59;5133453;27;20450;-60
2023/08/24 08:59:32;;;;;;;10.00;6.20;;;;;;;-143.84;68.57;44917.69;5133791;27;20438;-60
2023/08/24 09:02:01;;;;;;;15.13;6.17;;;;;;;-143.84;69.15;44923.41;5133451;27;20807;-60
2023/08/24 09:04:30;;;;;;;15.13;6.30;;;;;;;-143.84;67.78;44911.97;5133434;27;21039;-60
2023/08/24 09:06:57;;;;;;;7.20;6.17;;;;;;;-143.84;68.69;44913.88;5133158;27;20434;-60
2023/08/24 09:09:26;;;;;;;10.80;6.93;;;;;;;-143.84;66.90;44915.78;5133246;27;20558;-60
2023/08/24 09:11:54;;;;;;;8.03;6.50;;;;;;;-143.84;68.24;44911.97;5133002;27;20538;-60
2023/08/24 09:14:22;;;;;;;11.50;7.70;;;;;;;-143.84;68.38;44900.53;5133437;27;20446;-60
2023/08/24 09:16:50;;;;;;;10.63;7.73;;;;;;;-143.84;66.90;44910.06;5133155;27;20781;-60
2023/08/24 09:19:18;;;;;;;11.23;7.17;;;;;;;-143.84;68.12;44932.91;5133074;27;20490;-60
2023/08/24 09:21:45;;;;;;;13.33;7.73;;;;;;;-143.84;66.58;44904.34;5132881;27;20461;-60
2023/08/24 09:24:13;;;;;;;12.27;8.77;;;;;;;-143.84;66.05;44877.69;5132709;27;20484;-60
2023/08/24 09:26:42;;;;;;;7.97;7.17;;;;;;;-143.84;64.62;44908.16;5133011;27;20611;-60
2023/08/24 09:29:15;;;;;;;12.30;9.20;;;;;;;-143.84;66.66;44913.88;5132992;27;20453;-60
2023/08/24 09:31:43;;;;;;;11.90;9.17;;;;;;;-143.84;65.80;44906.25;5132782;27;20477;-60
2023/08/24 09:34:11;;;;;;;15.83;8.87;;;;;;;-143.84;68.83;44908.16;5132822;27;20446;-60
2023/08/24 09:36:39;;;;;;;14.13;9.60;;;;;;;-143.84;70.24;44911.97;5132708;27;20475;-60
2023/08/24 09:39:08;;;;;;;11.90;9.30;;;;;;;-143.84;70.74;44931.00;5132633;27;20491;-60
2023/08/24 09:41:42;;;;;;;12.00;10.03;;;;;;;-143.84;72.55;44929.09;5132501;27;20457;-60
2023/08/24 09:44:10;;;;;;;15.57;10.30;;;;;;;-143.84;71.80;44932.91;5132452;27;20433;-60
2023/08/24 09:46:40;;;;;;;11.13;9.87;;;;;;;-143.84;71.94;44908.16;5132830;27;20598;-60
2023/08/24 09:49:11;;;;;;;14.47;9.83;;;;;;;-143.84;71.51;44917.69;5132531;27;20453;-60
2023/08/24 09:51:41;;;;;;;11.00;9.50;;;;;;;-143.84;71.04;44927.19;5131781;27;20474;-60
2023/08/24 09:54:09;;;;;;;11.67;10.40;;;;;;;-143.84;72.63;44908.16;5131818;27;20446;-60
2023/08/24 09:56:38;;;;;;;19.70;10.40;;;;;;;-143.84;71.91;44900.53;5131126;27;20507;-60
2023/08/24 09:59:12;;;;;;;10.63;9.60;;;;;;;-143.84;70.05;44969.09;5131737;27;20442;-60
2023/08/24 10:01:43;;;;;;;11.23;9.67;;;;;;;-143.84;69.31;44913.88;5132125;27;20441;-60
2023/08/24 10:04:11;;;;;;;13.37;10.43;;;;;;;-143.84;69.01;44921.50;5132370;27;20852;-60
2023/08/24 10:06:40;;;;;;;13.50;8.67;;;;;;;-143.84;68.97;44934.81;5132094;27;20438;-60
2023/08/24 10:09:09;;;;;;;10.77;9.70;;;;;;;-143.84;69.08;44934.81;5132018;27;20434;-60
2023/08/24 10:11:44;;;;;;;12.90;10.57;;;;;;;-143.84;69.40;44923.41;5131829;27;20560;-60
2023/08/24 10:14:17;;;;;;;14.10;9.77;;;;;;;-143.84;68.26;44917.69;5132015;27;20437;-60
2023/08/24 10:16:47;;;;;;;15.23;9.97;;;;;;;-143.84;69.97;44925.31;5131962;27;20444;-60
2023/08/24 10:19:16;;;;;;;7.00;6.40;;;;;;;-143.84;56.13;44934.81;5131982;27;20530;-60
2023/08/24 10:21:44;;;;;;;12.33;6.87;;;;;;;-143.84;52.07;44919.59;5131898;27;20446;-60
2023/08/24 10:24:12;;;;;;;7.80;6.97;;;;;;;-143.84;55.52;44913.88;5131594;27;21009;-60
2023/08/24 10:26:41;;;;;;;10.73;7.40;;;;;;;-143.84;57.41;44915.78;5131686;27;20437;-60
2023/08/24 10:29:08;;;;;;;6.60;6.00;;;;;;;-143.84;48.34;44883.41;5131719;27;20939;-60
2023/08/24 10:31:37;;;;;;;8.10;6.43;;;;;;;-143.84;47.76;44910.06;5131649;27;20562;-60
2023/08/24 10:34:07;;;;;;;6.93;6.43;;;;;;;-143.84;48.40;44894.84;5131857;27;20438;-60
2023/08/24 10:36:35;;;;;;;9.97;7.10;;;;;;;-143.84;52.16;44877.69;5131622;27;20521;-60
2023/08/24 10:39:06;;;;;;;9.03;8.27;;;;;;;-143.84;53.86;44898.66;5131409;27;20440;-60
2023/08/24 10:41:48;;;;;;;11.20;8.03;;;;;;;-143.84;51.42;44910.06;5131448;27;20502;-60
2023/08/24 10:44:22;;;;;;;7.60;6.90;;;;;;;-143.84;48.80;44862.47;5131454;27;20947;-60
2023/08/24 10:47:08;;;;;;;14.00;6.57;;;;;;;-143.84;46.97;44873.88;5131477;27;20513;-60
2023/08/24 10:49:36;;;;;;;8.00;7.07;;;;;;;-143.84;47.21;44887.22;5119850;27;20480;-60
2023/08/24 10:52:20;;;;;;;7.47;6.77;;;;;;;-143.84;47.49;44866.28;5131249;27;21006;-60
2023/08/24 10:54:48;;;;;;;8.60;7.80;;;;;;;-143.84;51.15;44894.84;5131397;27;20495;-60
2023/08/24 10:57:20;;;;;;;13.13;7.10;;;;;;;-143.84;49.42;44856.75;5131062;27;20438;-59
2023/08/24 10:59:58;;;;;;;11.10;6.83;;;;;;;-143.84;49.29;44835.81;5130974;27;20490;-59
2023/08/24 11:02:25;;;;;;;17.10;9.00;;;;;;;-143.84;51.15;44877.69;5131009;27;20799;-59
2023/08/24 11:05:07;;;;;;;12.07;8.33;;;;;;;-143.84;51.70;44870.09;5130724;27;20917;-59
2023/08/24 11:07:34;;;;;;;16.53;9.30;;;;;;;-143.84;50.21;44871.97;5130415;27;20855;-59
2023/08/24 11:10:12;;;;;;;14.27;9.00;;;;;;;-143.84;51.35;44862.47;5130769;27;20540;-59
2023/08/24 11:13:14;;;;;;;8.77;7.13;;;;;;;-143.84;49.39;44881.50;5130793;27;20480;-59
2023/08/24 11:15:42;;;;;;;8.30;7.07;;;;;;;-143.84;46.87;44860.56;5130696;27;20442;-59